sensor_id;sensor_type;location;lat;lon;timestamp;temperature;humidity
25933;DHT22;13731;51.166;4.474;2022-11-09T00:01:35;14.60;1.00
25933;DHT22;13731;51.166;4.474;2022-11-09T00:04:02;14.60;1.00
25933;DHT22;13731;51.166;4.474;2022-11-09T00:06:28;14.50;1.00
25933;DHT22;13731;51.166;4.474;2022-11-09T00:08:54;14.60;1.00
25933;DHT22;13731;51.166;4.474;2022-11-09T00:11:20;14.50;1.00
25933;DHT22;13731;51.166;4.474;2022-11-09T00:13:46;14.50;1.00
25933;DHT22;13731;51.166;4.474;2022-11-09T00:16:13;14.50;1.00
25933;DHT22;13731;51.166;4.474;2022-11-09T00:18:39;14.60;99.90
25933;DHT22;13731;51.166;4.474;2022-11-09T00:21:10;14.60;1.00
25933;DHT22;13731;51.166;4.474;2022-11-09T00:23:36;14.50;1.00
25933;DHT22;13731;51.166;4.474;2022-11-09T00:26:02;14.50;99.90
25933;DHT22;13731;51.166;4.474;2022-11-09T00:28:28;14.40;99.90
25933;DHT22;13731;51.166;4.474;2022-11-09T00:30:58;14.40;1.00
25933;DHT22;13731;51.166;4.474;2022-11-09T00:33:23;14.40;1.00
25933;DHT22;13731;51.166;4.474;2022-11-09T00:35:49;14.30;1.00
25933;DHT22;13731;51.166;4.474;2022-11-09T00:38:14;14.30;1.00
25933;DHT22;13731;51.166;4.474;2022-11-09T00:40:40;14.20;1.00
25933;DHT22;13731;51.166;4.474;2022-11-09T00:43:06;14.20;1.00
25933;DHT22;13731;51.166;4.474;2022-11-09T00:45:31;14.20;1.00
25933;DHT22;13731;51.166;4.474;2022-11-09T00:47:57;14.20;99.90
25933;DHT22;13731;51.166;4.474;2022-11-09T00:50:23;14.20;99.90
25933;DHT22;13731;51.166;4.474;2022-11-09T00:52:49;14.20;99.90
25933;DHT22;13731;51.166;4.474;2022-11-09T00:55:15;14.20;99.90
25933;DHT22;13731;51.166;4.474;2022-11-09T00:57:41;14.10;99.90
25933;DHT22;13731;51.166;4.474;2022-11-09T01:00:07;14.10;99.90
25933;DHT22;13731;51.166;4.474;2022-11-09T01:02:32;14.10;99.90
25933;DHT22;13731;51.166;4.474;2022-11-09T01:04:58;14.10;99.90
25933;DHT22;13731;51.166;4.474;2022-11-09T01:07:24;14.10;99.90
25933;DHT22;13731;51.166;4.474;2022-11-09T01:09:50;14.10;99.90
25933;DHT22;13731;51.166;4.474;2022-11-09T01:12:15;14.00;99.90
25933;DHT22;13731;51.166;4.474;2022-11-09T01:14:41;14.00;99.90
25933;DHT22;13731;51.166;4.474;2022-11-09T01:17:07;13.90;99.90
25933;DHT22;13731;51.166;4.474;2022-11-09T01:19:32;14.00;99.90
25933;DHT22;13731;51.166;4.474;2022-11-09T01:21:58;13.90;99.90
25933;DHT22;13731;51.166;4.474;2022-11-09T01:24:23;14.10;99.90
25933;DHT22;13731;51.166;4.474;2022-11-09T01:26:49;14.10;1.00
25933;DHT22;13731;51.166;4.474;2022-11-09T01:29:15;14.10;1.00
25933;DHT22;13731;51.166;4.474;2022-11-09T01:31:40;14.10;1.00
25933;DHT22;13731;51.166;4.474;2022-11-09T01:34:06;14.00;1.00
25933;DHT22;13731;51.166;4.474;2022-11-09T01:36:32;14.10;1.00
25933;DHT22;13731;51.166;4.474;2022-11-09T01:38:59;14.10;1.00
25933;DHT22;13731;51.166;4.474;2022-11-09T01:41:26;14.00;1.00
25933;DHT22;13731;51.166;4.474;2022-11-09T01:46:33;14.00;1.00
25933;DHT22;13731;51.166;4.474;2022-11-09T01:49:01;13.90;1.00
25933;DHT22;13731;51.166;4.474;2022-11-09T01:51:30;13.90;12.80
25933;DHT22;13731;51.166;4.474;2022-11-09T01:54:11;14.00;1.00
25933;DHT22;13731;51.166;4.474;2022-11-09T01:56:38;14.00;1.00
25933;DHT22;13731;51.166;4.474;2022-11-09T01:59:09;14.00;1.00
25933;DHT22;13731;51.166;4.474;2022-11-09T02:01:36;14.00;1.00
25933;DHT22;13731;51.166;4.474;2022-11-09T02:06:31;13.90;1.00
25933;DHT22;13731;51.166;4.474;2022-11-09T02:09:08;14.00;1.00
25933;DHT22;13731;51.166;4.474;2022-11-09T02:11:34;14.00;1.00
25933;DHT22;13731;51.166;4.474;2022-11-09T02:14:01;13.90;1.00
25933;DHT22;13731;51.166;4.474;2022-11-09T02:16:27;13.90;1.00
25933;DHT22;13731;51.166;4.474;2022-11-09T02:18:55;13.90;99.90
25933;DHT22;13731;51.166;4.474;2022-11-09T02:21:26;13.90;99.90
25933;DHT22;13731;51.166;4.474;2022-11-09T02:23:53;13.90;99.90
25933;DHT22;13731;51.166;4.474;2022-11-09T02:26:21;13.90;99.90
25933;DHT22;13731;51.166;4.474;2022-11-09T02:28:48;13.90;1.00
25933;DHT22;13731;51.166;4.474;2022-11-09T02:31:14;13.90;1.00
25933;DHT22;13731;51.166;4.474;2022-11-09T02:33:52;13.80;1.00
25933;DHT22;13731;51.166;4.474;2022-11-09T02:36:19;13.70;99.90
25933;DHT22;13731;51.166;4.474;2022-11-09T02:38:45;13.80;99.90
25933;DHT22;13731;51.166;4.474;2022-11-09T02:41:11;13.80;99.90
25933;DHT22;13731;51.166;4.474;2022-11-09T02:43:37;13.80;99.90
25933;DHT22;13731;51.166;4.474;2022-11-09T02:46:03;13.70;99.90
25933;DHT22;13731;51.166;4.474;2022-11-09T02:48:29;13.70;99.90
25933;DHT22;13731;51.166;4.474;2022-11-09T02:50:56;13.60;1.00
25933;DHT22;13731;51.166;4.474;2022-11-09T02:53:21;13.70;99.90
25933;DHT22;13731;51.166;4.474;2022-11-09T02:55:47;13.70;1.00
25933;DHT22;13731;51.166;4.474;2022-11-09T02:58:13;13.60;1.00
25933;DHT22;13731;51.166;4.474;2022-11-09T03:00:39;13.60;1.00
25933;DHT22;13731;51.166;4.474;2022-11-09T03:03:05;13.50;1.00
25933;DHT22;13731;51.166;4.474;2022-11-09T03:05:31;13.50;1.00
25933;DHT22;13731;51.166;4.474;2022-11-09T03:07:57;13.50;1.00
25933;DHT22;13731;51.166;4.474;2022-11-09T03:10:28;13.50;1.00
25933;DHT22;13731;51.166;4.474;2022-11-09T03:12:54;13.40;24.80
25933;DHT22;13731;51.166;4.474;2022-11-09T03:15:20;13.40;52.90
25933;DHT22;13731;51.166;4.474;2022-11-09T03:17:45;13.40;12.30
25933;DHT22;13731;51.166;4.474;2022-11-09T03:20:12;13.50;5.40
25933;DHT22;13731;51.166;4.474;2022-11-09T03:22:39;13.50;32.30
25933;DHT22;13731;51.166;4.474;2022-11-09T03:25:04;13.50;2.40
25933;DHT22;13731;51.166;4.474;2022-11-09T03:27:30;13.50;29.20
25933;DHT22;13731;51.166;4.474;2022-11-09T03:29:56;13.30;99.90
25933;DHT22;13731;51.166;4.474;2022-11-09T03:32:23;13.20;99.90
25933;DHT22;13731;51.166;4.474;2022-11-09T03:34:48;13.20;99.90
25933;DHT22;13731;51.166;4.474;2022-11-09T03:37:16;13.20;99.90
25933;DHT22;13731;51.166;4.474;2022-11-09T03:39:42;13.10;99.90
25933;DHT22;13731;51.166;4.474;2022-11-09T03:42:07;13.10;99.90
25933;DHT22;13731;51.166;4.474;2022-11-09T03:44:35;13.00;99.90
25933;DHT22;13731;51.166;4.474;2022-11-09T03:47:01;13.00;99.90
25933;DHT22;13731;51.166;4.474;2022-11-09T03:49:26;13.00;99.90
25933;DHT22;13731;51.166;4.474;2022-11-09T03:51:52;13.10;99.90
25933;DHT22;13731;51.166;4.474;2022-11-09T03:54:17;13.10;99.90
25933;DHT22;13731;51.166;4.474;2022-11-09T03:56:43;13.10;99.90
25933;DHT22;13731;51.166;4.474;2022-11-09T03:59:09;13.00;99.90
25933;DHT22;13731;51.166;4.474;2022-11-09T04:01:34;13.10;99.90
25933;DHT22;13731;51.166;4.474;2022-11-09T04:04:00;13.00;99.90
25933;DHT22;13731;51.166;4.474;2022-11-09T04:06:25;13.00;99.90
25933;DHT22;13731;51.166;4.474;2022-11-09T04:08:51;12.90;99.90
25933;DHT22;13731;51.166;4.474;2022-11-09T04:11:18;12.90;99.90
25933;DHT22;13731;51.166;4.474;2022-11-09T04:13:43;12.90;99.90
25933;DHT22;13731;51.166;4.474;2022-11-09T04:16:09;13.00;99.90
25933;DHT22;13731;51.166;4.474;2022-11-09T04:18:35;12.90;99.90
25933;DHT22;13731;51.166;4.474;2022-11-09T04:21:00;12.90;99.90
25933;DHT22;13731;51.166;4.474;2022-11-09T04:23:26;12.90;1.00
25933;DHT22;13731;51.166;4.474;2022-11-09T04:25:52;12.80;1.00
25933;DHT22;13731;51.166;4.474;2022-11-09T04:28:17;12.80;1.00
25933;DHT22;13731;51.166;4.474;2022-11-09T04:30:43;12.90;1.00
25933;DHT22;13731;51.166;4.474;2022-11-09T04:33:09;12.90;1.00
25933;DHT22;13731;51.166;4.474;2022-11-09T04:35:35;12.90;1.00
25933;DHT22;13731;51.166;4.474;2022-11-09T04:38:02;12.80;1.00
25933;DHT22;13731;51.166;4.474;2022-11-09T04:40:29;12.70;1.00
25933;DHT22;13731;51.166;4.474;2022-11-09T04:42:59;12.70;1.00
25933;DHT22;13731;51.166;4.474;2022-11-09T04:45:25;12.70;1.00
25933;DHT22;13731;51.166;4.474;2022-11-09T04:47:55;12.90;1.00
25933;DHT22;13731;51.166;4.474;2022-11-09T04:50:21;13.00;99.90
25933;DHT22;13731;51.166;4.474;2022-11-09T04:52:50;13.00;99.90
25933;DHT22;13731;51.166;4.474;2022-11-09T04:55:16;13.00;99.90
25933;DHT22;13731;51.166;4.474;2022-11-09T04:57:41;13.10;99.90
25933;DHT22;13731;51.166;4.474;2022-11-09T05:00:07;13.10;99.90
25933;DHT22;13731;51.166;4.474;2022-11-09T05:02:33;13.10;99.90
25933;DHT22;13731;51.166;4.474;2022-11-09T05:04:58;13.10;99.90
25933;DHT22;13731;51.166;4.474;2022-11-09T05:07:24;13.20;99.90
25933;DHT22;13731;51.166;4.474;2022-11-09T05:09:50;13.20;99.90
25933;DHT22;13731;51.166;4.474;2022-11-09T05:12:15;13.20;99.90
25933;DHT22;13731;51.166;4.474;2022-11-09T05:14:41;13.10;99.90
25933;DHT22;13731;51.166;4.474;2022-11-09T05:17:07;13.10;99.90
25933;DHT22;13731;51.166;4.474;2022-11-09T05:19:33;13.10;99.90
25933;DHT22;13731;51.166;4.474;2022-11-09T05:21:59;13.10;99.90
25933;DHT22;13731;51.166;4.474;2022-11-09T05:24:45;13.00;1.00
25933;DHT22;13731;51.166;4.474;2022-11-09T05:27:11;12.90;1.00
25933;DHT22;13731;51.166;4.474;2022-11-09T05:29:36;13.00;1.00
25933;DHT22;13731;51.166;4.474;2022-11-09T05:32:02;13.00;1.00
25933;DHT22;13731;51.166;4.474;2022-11-09T05:34:28;12.90;1.00
25933;DHT22;13731;51.166;4.474;2022-11-09T05:36:53;12.90;1.00
25933;DHT22;13731;51.166;4.474;2022-11-09T05:39:19;13.00;1.00
25933;DHT22;13731;51.166;4.474;2022-11-09T05:41:45;13.00;1.00
25933;DHT22;13731;51.166;4.474;2022-11-09T05:44:10;13.00;99.90
25933;DHT22;13731;51.166;4.474;2022-11-09T05:46:36;12.90;1.00
25933;DHT22;13731;51.166;4.474;2022-11-09T05:49:02;12.90;1.00
25933;DHT22;13731;51.166;4.474;2022-11-09T05:51:27;12.90;1.00
25933;DHT22;13731;51.166;4.474;2022-11-09T05:53:53;12.80;1.00
25933;DHT22;13731;51.166;4.474;2022-11-09T05:56:18;12.70;1.00
25933;DHT22;13731;51.166;4.474;2022-11-09T05:58:44;12.60;1.00
25933;DHT22;13731;51.166;4.474;2022-11-09T06:01:14;12.70;1.00
25933;DHT22;13731;51.166;4.474;2022-11-09T06:03:40;12.70;1.00
25933;DHT22;13731;51.166;4.474;2022-11-09T06:06:08;12.80;1.00
25933;DHT22;13731;51.166;4.474;2022-11-09T06:08:35;12.70;1.00
25933;DHT22;13731;51.166;4.474;2022-11-09T06:11:04;12.70;1.00
25933;DHT22;13731;51.166;4.474;2022-11-09T06:13:30;12.70;1.00
25933;DHT22;13731;51.166;4.474;2022-11-09T06:15:57;12.70;1.00
25933;DHT22;13731;51.166;4.474;2022-11-09T06:18:23;12.70;1.00
25933;DHT22;13731;51.166;4.474;2022-11-09T06:20:50;12.70;1.00
25933;DHT22;13731;51.166;4.474;2022-11-09T06:23:16;12.70;1.00
25933;DHT22;13731;51.166;4.474;2022-11-09T06:25:42;12.80;1.00
25933;DHT22;13731;51.166;4.474;2022-11-09T06:28:08;12.70;1.00
25933;DHT22;13731;51.166;4.474;2022-11-09T06:30:33;12.70;1.00
25933;DHT22;13731;51.166;4.474;2022-11-09T06:33:00;12.70;1.00
25933;DHT22;13731;51.166;4.474;2022-11-09T06:35:26;12.70;1.00
25933;DHT22;13731;51.166;4.474;2022-11-09T06:37:53;12.70;1.00
25933;DHT22;13731;51.166;4.474;2022-11-09T06:40:19;12.70;1.00
25933;DHT22;13731;51.166;4.474;2022-11-09T06:42:45;12.70;99.90
25933;DHT22;13731;51.166;4.474;2022-11-09T06:45:10;12.70;1.00
25933;DHT22;13731;51.166;4.474;2022-11-09T06:47:36;12.70;1.00
25933;DHT22;13731;51.166;4.474;2022-11-09T06:50:02;12.70;99.90
25933;DHT22;13731;51.166;4.474;2022-11-09T06:52:28;12.60;1.00
25933;DHT22;13731;51.166;4.474;2022-11-09T06:54:53;12.60;99.90
25933;DHT22;13731;51.166;4.474;2022-11-09T06:57:19;12.70;99.90
25933;DHT22;13731;51.166;4.474;2022-11-09T06:59:45;12.60;1.00
25933;DHT22;13731;51.166;4.474;2022-11-09T07:02:12;12.50;1.00
25933;DHT22;13731;51.166;4.474;2022-11-09T07:04:39;12.40;1.00
25933;DHT22;13731;51.166;4.474;2022-11-09T07:07:06;12.50;1.00
25933;DHT22;13731;51.166;4.474;2022-11-09T07:09:31;12.40;1.00
25933;DHT22;13731;51.166;4.474;2022-11-09T07:11:57;12.30;1.00
25933;DHT22;13731;51.166;4.474;2022-11-09T07:14:24;12.30;1.00
25933;DHT22;13731;51.166;4.474;2022-11-09T07:16:50;12.20;1.00
25933;DHT22;13731;51.166;4.474;2022-11-09T07:19:16;12.20;1.00
25933;DHT22;13731;51.166;4.474;2022-11-09T07:21:42;12.20;1.00
25933;DHT22;13731;51.166;4.474;2022-11-09T07:24:07;12.20;1.00
25933;DHT22;13731;51.166;4.474;2022-11-09T07:26:33;12.20;1.00
25933;DHT22;13731;51.166;4.474;2022-11-09T07:28:59;12.20;1.00
25933;DHT22;13731;51.166;4.474;2022-11-09T07:31:24;12.10;1.00
25933;DHT22;13731;51.166;4.474;2022-11-09T07:33:53;12.10;1.00
25933;DHT22;13731;51.166;4.474;2022-11-09T07:36:20;12.00;1.00
25933;DHT22;13731;51.166;4.474;2022-11-09T07:38:45;12.10;1.00
25933;DHT22;13731;51.166;4.474;2022-11-09T07:41:11;12.10;1.00
25933;DHT22;13731;51.166;4.474;2022-11-09T07:43:37;12.10;1.00
25933;DHT22;13731;51.166;4.474;2022-11-09T07:46:03;12.10;1.00
25933;DHT22;13731;51.166;4.474;2022-11-09T07:48:29;12.10;1.00
25933;DHT22;13731;51.166;4.474;2022-11-09T07:50:55;12.00;1.00
25933;DHT22;13731;51.166;4.474;2022-11-09T07:53:21;12.00;1.00
25933;DHT22;13731;51.166;4.474;2022-11-09T07:55:55;12.00;1.00
25933;DHT22;13731;51.166;4.474;2022-11-09T07:58:21;12.10;1.00
25933;DHT22;13731;51.166;4.474;2022-11-09T08:00:46;12.00;1.00
25933;DHT22;13731;51.166;4.474;2022-11-09T08:03:12;12.10;1.00
25933;DHT22;13731;51.166;4.474;2022-11-09T08:05:38;12.10;1.00
25933;DHT22;13731;51.166;4.474;2022-11-09T08:08:05;12.10;1.00
25933;DHT22;13731;51.166;4.474;2022-11-09T08:10:31;12.10;1.00
25933;DHT22;13731;51.166;4.474;2022-11-09T08:12:59;12.10;1.00
25933;DHT22;13731;51.166;4.474;2022-11-09T08:15:25;12.10;1.00
25933;DHT22;13731;51.166;4.474;2022-11-09T08:17:51;12.20;1.00
25933;DHT22;13731;51.166;4.474;2022-11-09T08:20:17;12.30;1.00
25933;DHT22;13731;51.166;4.474;2022-11-09T08:22:43;12.30;1.00
25933;DHT22;13731;51.166;4.474;2022-11-09T08:25:09;12.30;1.00
25933;DHT22;13731;51.166;4.474;2022-11-09T08:27:35;12.40;1.00
25933;DHT22;13731;51.166;4.474;2022-11-09T08:30:05;12.40;1.00
25933;DHT22;13731;51.166;4.474;2022-11-09T08:32:30;12.50;99.90
25933;DHT22;13731;51.166;4.474;2022-11-09T08:34:56;12.50;99.90
25933;DHT22;13731;51.166;4.474;2022-11-09T08:37:22;12.60;99.90
25933;DHT22;13731;51.166;4.474;2022-11-09T08:39:47;12.60;99.90
25933;DHT22;13731;51.166;4.474;2022-11-09T08:42:13;12.70;99.90
25933;DHT22;13731;51.166;4.474;2022-11-09T08:44:39;12.80;99.90
25933;DHT22;13731;51.166;4.474;2022-11-09T08:47:04;12.90;19.20
25933;DHT22;13731;51.166;4.474;2022-11-09T08:49:30;13.00;1.00
25933;DHT22;13731;51.166;4.474;2022-11-09T08:51:56;13.00;1.00
25933;DHT22;13731;51.166;4.474;2022-11-09T08:54:22;13.00;1.00
25933;DHT22;13731;51.166;4.474;2022-11-09T08:56:48;13.00;1.00
25933;DHT22;13731;51.166;4.474;2022-11-09T08:59:13;13.00;1.00
25933;DHT22;13731;51.166;4.474;2022-11-09T09:01:39;13.10;99.90
25933;DHT22;13731;51.166;4.474;2022-11-09T09:04:05;13.20;99.90
25933;DHT22;13731;51.166;4.474;2022-11-09T09:06:30;13.10;99.90
25933;DHT22;13731;51.166;4.474;2022-11-09T09:08:56;13.20;99.90
25933;DHT22;13731;51.166;4.474;2022-11-09T09:11:22;13.10;7.60
25933;DHT22;13731;51.166;4.474;2022-11-09T09:13:47;13.30;1.00
25933;DHT22;13731;51.166;4.474;2022-11-09T09:16:14;13.30;1.00
25933;DHT22;13731;51.166;4.474;2022-11-09T09:18:40;13.40;1.00
25933;DHT22;13731;51.166;4.474;2022-11-09T09:21:09;13.50;1.00
25933;DHT22;13731;51.166;4.474;2022-11-09T09:23:35;13.60;99.90
25933;DHT22;13731;51.166;4.474;2022-11-09T09:26:01;13.70;1.00
25933;DHT22;13731;51.166;4.474;2022-11-09T09:28:26;13.90;1.00
25933;DHT22;13731;51.166;4.474;2022-11-09T09:30:52;14.10;99.90
25933;DHT22;13731;51.166;4.474;2022-11-09T09:33:18;14.00;99.90
25933;DHT22;13731;51.166;4.474;2022-11-09T09:35:44;14.00;91.20
25933;DHT22;13731;51.166;4.474;2022-11-09T09:38:09;14.10;1.00
25933;DHT22;13731;51.166;4.474;2022-11-09T09:40:37;13.90;1.00
25933;DHT22;13731;51.166;4.474;2022-11-09T09:43:05;13.90;99.90
25933;DHT22;13731;51.166;4.474;2022-11-09T09:45:31;13.90;1.00
25933;DHT22;13731;51.166;4.474;2022-11-09T09:50:25;14.30;99.90
25933;DHT22;13731;51.166;4.474;2022-11-09T09:52:55;15.00;99.90
25933;DHT22;13731;51.166;4.474;2022-11-09T09:55:27;15.50;99.90
25933;DHT22;13731;51.166;4.474;2022-11-09T09:58:01;15.60;1.00
25933;DHT22;13731;51.166;4.474;2022-11-09T10:00:29;15.80;99.90
25933;DHT22;13731;51.166;4.474;2022-11-09T10:02:55;16.00;99.90
25933;DHT22;13731;51.166;4.474;2022-11-09T10:05:22;16.60;99.90
25933;DHT22;13731;51.166;4.474;2022-11-09T10:07:59;15.90;1.00
25933;DHT22;13731;51.166;4.474;2022-11-09T10:10:41;15.40;1.00
25933;DHT22;13731;51.166;4.474;2022-11-09T10:15:48;14.50;99.90
25933;DHT22;13731;51.166;4.474;2022-11-09T10:18:27;14.40;1.00
25933;DHT22;13731;51.166;4.474;2022-11-09T10:21:01;14.40;1.00
25933;DHT22;13731;51.166;4.474;2022-11-09T10:26:13;14.00;51.20
25933;DHT22;13731;51.166;4.474;2022-11-09T10:28:40;14.10;77.20
25933;DHT22;13731;51.166;4.474;2022-11-09T10:31:14;14.30;44.60
25933;DHT22;13731;51.166;4.474;2022-11-09T10:33:41;14.20;1.00
25933;DHT22;13731;51.166;4.474;2022-11-09T10:39:00;14.30;99.90
25933;DHT22;13731;51.166;4.474;2022-11-09T10:41:44;14.30;99.90
25933;DHT22;13731;51.166;4.474;2022-11-09T10:44:31;14.30;1.00
25933;DHT22;13731;51.166;4.474;2022-11-09T10:47:16;14.50;1.00
25933;DHT22;13731;51.166;4.474;2022-11-09T10:53:13;14.40;1.00
25933;DHT22;13731;51.166;4.474;2022-11-09T10:56:14;14.50;99.90
25933;DHT22;13731;51.166;4.474;2022-11-09T10:58:58;14.40;99.90
25933;DHT22;13731;51.166;4.474;2022-11-09T11:01:42;14.40;99.90
25933;DHT22;13731;51.166;4.474;2022-11-09T11:04:27;14.60;99.90
25933;DHT22;13731;51.166;4.474;2022-11-09T11:07:16;14.70;1.00
25933;DHT22;13731;51.166;4.474;2022-11-09T11:13:18;14.70;58.30
25933;DHT22;13731;51.166;4.474;2022-11-09T11:16:12;14.70;66.40
25933;DHT22;13731;51.166;4.474;2022-11-09T11:18:57;14.80;1.00
25933;DHT22;13731;51.166;4.474;2022-11-09T11:21:41;14.60;1.00
25933;DHT22;13731;51.166;4.474;2022-11-09T11:24:25;14.70;99.90
25933;DHT22;13731;51.166;4.474;2022-11-09T11:27:13;14.60;1.00
25933;DHT22;13731;51.166;4.474;2022-11-09T11:30:04;14.60;1.00
25933;DHT22;13731;51.166;4.474;2022-11-09T11:32:49;14.60;1.00
25933;DHT22;13731;51.166;4.474;2022-11-09T11:38:42;14.40;1.00
25933;DHT22;13731;51.166;4.474;2022-11-09T11:57:00;15.10;99.90
25933;DHT22;13731;51.166;4.474;2022-11-09T11:59:34;16.20;1.00
25933;DHT22;13731;51.166;4.474;2022-11-09T12:02:27;17.10;99.90
25933;DHT22;13731;51.166;4.474;2022-11-09T12:05:27;17.90;1.00
25933;DHT22;13731;51.166;4.474;2022-11-09T12:11:21;17.90;1.00
25933;DHT22;13731;51.166;4.474;2022-11-09T12:22:50;18.80;35.60
25933;DHT22;13731;51.166;4.474;2022-11-09T12:28:29;18.50;1.00
25933;DHT22;13731;51.166;4.474;2022-11-09T12:34:14;16.70;99.90
25933;DHT22;13731;51.166;4.474;2022-11-09T12:37:12;16.10;99.90
25933;DHT22;13731;51.166;4.474;2022-11-09T12:40:02;17.40;1.00
25933;DHT22;13731;51.166;4.474;2022-11-09T12:45:38;18.60;1.00
25933;DHT22;13731;51.166;4.474;2022-11-09T12:51:07;17.50;99.90
25933;DHT22;13731;51.166;4.474;2022-11-09T12:53:51;17.80;99.90
25933;DHT22;13731;51.166;4.474;2022-11-09T12:56:49;18.70;1.00
25933;DHT22;13731;51.166;4.474;2022-11-09T12:59:36;18.90;1.00
25933;DHT22;13731;51.166;4.474;2022-11-09T13:02:30;18.90;1.00
25933;DHT22;13731;51.166;4.474;2022-11-09T13:05:31;19.30;99.90
25933;DHT22;13731;51.166;4.474;2022-11-09T13:08:22;19.10;99.90
25933;DHT22;13731;51.166;4.474;2022-11-09T13:20:36;19.00;99.90
25933;DHT22;13731;51.166;4.474;2022-11-09T13:23:27;19.40;99.90
25933;DHT22;13731;51.166;4.474;2022-11-09T13:29:27;19.20;99.90
25933;DHT22;13731;51.166;4.474;2022-11-09T13:34:57;17.50;1.00
25933;DHT22;13731;51.166;4.474;2022-11-09T13:46:24;17.60;99.90
25933;DHT22;13731;51.166;4.474;2022-11-09T13:55:36;16.00;1.00
25933;DHT22;13731;51.166;4.474;2022-11-09T13:58:26;15.70;99.90
25933;DHT22;13731;51.166;4.474;2022-11-09T14:01:31;15.60;1.00
25933;DHT22;13731;51.166;4.474;2022-11-09T14:04:19;15.50;99.90
25933;DHT22;13731;51.166;4.474;2022-11-09T14:23:44;14.70;99.90
25933;DHT22;13731;51.166;4.474;2022-11-09T14:26:28;14.70;99.90
25933;DHT22;13731;51.166;4.474;2022-11-09T14:29:19;14.50;1.00
25933;DHT22;13731;51.166;4.474;2022-11-09T14:32:26;14.00;1.00
25933;DHT22;13731;51.166;4.474;2022-11-09T14:35:25;13.80;1.00
25933;DHT22;13731;51.166;4.474;2022-11-09T14:41:24;13.80;99.90
25933;DHT22;13731;51.166;4.474;2022-11-09T14:44:13;13.90;99.90
25933;DHT22;13731;51.166;4.474;2022-11-09T14:46:58;13.70;34.50
25933;DHT22;13731;51.166;4.474;2022-11-09T14:49:43;13.60;1.00
25933;DHT22;13731;51.166;4.474;2022-11-09T14:52:28;13.50;99.90
25933;DHT22;13731;51.166;4.474;2022-11-09T14:55:14;13.40;1.00
25933;DHT22;13731;51.166;4.474;2022-11-09T14:57:59;13.30;1.00
25933;DHT22;13731;51.166;4.474;2022-11-09T15:00:43;13.40;99.90
25933;DHT22;13731;51.166;4.474;2022-11-09T15:03:28;13.50;1.00
25933;DHT22;13731;51.166;4.474;2022-11-09T15:06:13;13.40;11.70
25933;DHT22;13731;51.166;4.474;2022-11-09T15:09:00;13.40;1.00
25933;DHT22;13731;51.166;4.474;2022-11-09T15:11:44;13.40;1.00
25933;DHT22;13731;51.166;4.474;2022-11-09T15:14:30;13.30;1.00
25933;DHT22;13731;51.166;4.474;2022-11-09T15:17:17;13.20;99.90
25933;DHT22;13731;51.166;4.474;2022-11-09T15:20:22;13.30;54.50
25933;DHT22;13731;51.166;4.474;2022-11-09T15:32:16;13.00;99.90
25933;DHT22;13731;51.166;4.474;2022-11-09T15:35:01;13.20;1.00
25933;DHT22;13731;51.166;4.474;2022-11-09T15:37:50;13.20;43.20
25933;DHT22;13731;51.166;4.474;2022-11-09T15:40:34;13.10;99.90
25933;DHT22;13731;51.166;4.474;2022-11-09T15:43:18;13.00;99.90
25933;DHT22;13731;51.166;4.474;2022-11-09T15:46:04;13.00;99.90
25933;DHT22;13731;51.166;4.474;2022-11-09T15:48:48;12.90;99.90
25933;DHT22;13731;51.166;4.474;2022-11-09T15:51:33;13.00;99.90
25933;DHT22;13731;51.166;4.474;2022-11-09T15:54:17;13.00;1.00
25933;DHT22;13731;51.166;4.474;2022-11-09T15:57:02;12.80;99.90
25933;DHT22;13731;51.166;4.474;2022-11-09T15:59:47;12.80;99.90
25933;DHT22;13731;51.166;4.474;2022-11-09T16:02:31;12.80;46.20
25933;DHT22;13731;51.166;4.474;2022-11-09T16:05:15;12.80;87.60
25933;DHT22;13731;51.166;4.474;2022-11-09T16:08:00;12.70;99.90
25933;DHT22;13731;51.166;4.474;2022-11-09T16:10:44;12.70;56.50
25933;DHT22;13731;51.166;4.474;2022-11-09T16:13:30;12.70;99.90
25933;DHT22;13731;51.166;4.474;2022-11-09T16:16:14;12.70;99.90
25933;DHT22;13731;51.166;4.474;2022-11-09T16:18:59;12.60;99.90
25933;DHT22;13731;51.166;4.474;2022-11-09T16:21:43;12.60;99.90
25933;DHT22;13731;51.166;4.474;2022-11-09T16:24:28;12.60;99.90
25933;DHT22;13731;51.166;4.474;2022-11-09T16:27:12;12.50;99.90
25933;DHT22;13731;51.166;4.474;2022-11-09T16:29:56;12.50;99.90
25933;DHT22;13731;51.166;4.474;2022-11-09T16:32:41;12.50;99.90
25933;DHT22;13731;51.166;4.474;2022-11-09T16:35:25;12.50;99.90
25933;DHT22;13731;51.166;4.474;2022-11-09T16:38:09;12.50;99.90
25933;DHT22;13731;51.166;4.474;2022-11-09T16:40:53;12.50;99.90
25933;DHT22;13731;51.166;4.474;2022-11-09T16:43:38;12.40;1.00
25933;DHT22;13731;51.166;4.474;2022-11-09T16:46:24;12.30;1.00
25933;DHT22;13731;51.166;4.474;2022-11-09T16:49:09;12.30;1.00
25933;DHT22;13731;51.166;4.474;2022-11-09T16:51:53;12.40;1.00
25933;DHT22;13731;51.166;4.474;2022-11-09T16:54:37;12.40;1.00
25933;DHT22;13731;51.166;4.474;2022-11-09T16:57:22;12.50;99.90
25933;DHT22;13731;51.166;4.474;2022-11-09T17:00:06;12.40;99.90
25933;DHT22;13731;51.166;4.474;2022-11-09T17:02:51;12.30;1.00
25933;DHT22;13731;51.166;4.474;2022-11-09T17:05:36;12.30;1.00
25933;DHT22;13731;51.166;4.474;2022-11-09T17:08:20;12.30;1.00
25933;DHT22;13731;51.166;4.474;2022-11-09T17:11:08;12.30;1.00
25933;DHT22;13731;51.166;4.474;2022-11-09T17:13:56;12.40;1.00
25933;DHT22;13731;51.166;4.474;2022-11-09T17:16:40;12.40;1.00
25933;DHT22;13731;51.166;4.474;2022-11-09T17:19:29;12.30;1.00
25933;DHT22;13731;51.166;4.474;2022-11-09T17:22:13;12.20;1.00
25933;DHT22;13731;51.166;4.474;2022-11-09T17:24:58;12.20;5.30
25933;DHT22;13731;51.166;4.474;2022-11-09T17:27:42;12.10;76.60
25933;DHT22;13731;51.166;4.474;2022-11-09T17:30:27;12.20;91.90
25933;DHT22;13731;51.166;4.474;2022-11-09T17:33:11;12.10;82.50
25933;DHT22;13731;51.166;4.474;2022-11-09T17:35:59;12.10;99.90
25933;DHT22;13731;51.166;4.474;2022-11-09T17:38:44;12.10;99.90
25933;DHT22;13731;51.166;4.474;2022-11-09T17:41:28;12.10;99.90
25933;DHT22;13731;51.166;4.474;2022-11-09T17:44:12;12.00;99.90
25933;DHT22;13731;51.166;4.474;2022-11-09T17:46:56;12.00;99.90
25933;DHT22;13731;51.166;4.474;2022-11-09T17:49:40;11.90;99.90
25933;DHT22;13731;51.166;4.474;2022-11-09T17:52:24;11.90;99.90
25933;DHT22;13731;51.166;4.474;2022-11-09T17:55:08;11.90;99.90
25933;DHT22;13731;51.166;4.474;2022-11-09T17:57:53;11.90;99.90
25933;DHT22;13731;51.166;4.474;2022-11-09T18:00:37;11.80;99.90
25933;DHT22;13731;51.166;4.474;2022-11-09T18:03:21;11.90;99.90
25933;DHT22;13731;51.166;4.474;2022-11-09T18:06:11;11.90;99.90
25933;DHT22;13731;51.166;4.474;2022-11-09T18:08:55;11.80;99.90
25933;DHT22;13731;51.166;4.474;2022-11-09T18:11:40;11.80;99.90
25933;DHT22;13731;51.166;4.474;2022-11-09T18:14:24;11.90;99.90
25933;DHT22;13731;51.166;4.474;2022-11-09T18:17:08;11.80;99.90
25933;DHT22;13731;51.166;4.474;2022-11-09T18:19:53;11.70;99.90
25933;DHT22;13731;51.166;4.474;2022-11-09T18:22:37;11.70;99.90